LFKBLIEA

Guest
Details From LFKB - Bastia Poretta
To LIEA - ALGHERO
Flight Number -
Tags decoded
Created
Modified
Stats Distance 197 nm / 365 km
Max Altitude 0 ft / 0 m
Waypoints 6
Social Downloads 3
Likes 0
Share VATSIM

Download

Looking for another format? Having issues loading an existing format? Contact us
Advertisement - Login to hide

Notes

Requested: LFKB NEMIT IBROS OLBEK ADRUX LIEA

Route

LFKB NEMIT IBROS OLBEK ADRUX LIEA

ID Type Via Altitude Latitude Longitude Leg Dist Tot Dist Heading (true) Name
O LFKB APT - 0 ft / 0 m 42.55251˚ 9.48371˚ - 0 nm - Bastia Poretta
NEMIT FIX - 0 ft / 0 m 42.36389˚ 10.25806˚ 36 nm 36 nm 108° / 109° -
IBROS FIX - 0 ft / 0 m 41.79472˚ 10.04806˚ 35 nm 71 nm 195° / 195° -
OLBEK FIX - 0 ft / 0 m 41.25889˚ 9.85389˚ 33 nm 104 nm 195° / 195° -
ADRUX FIX - 0 ft / 0 m 40.76444˚ 9.59889˚ 31 nm 136 nm 201° / 201° -
O LIEA APT - 0 ft / 0 m 40.63213˚ 8.29077˚ 60 nm 196 nm 263° / 262° ALGHERO

Altitude Profile

Advertisement - Login to hide

Weather


0- 5 10 15 20 25 30 35+ Temperature / ° C

Clouds and Precipitation
Forecast for 2017-12-17 00:00 UTC. Updated an hour ago

Ground ~20,000 ft ~40,000 ft Winds

LFKB

Details ICAO LFKB (BIA)
Name Bastia Poretta
Region France
Timezone Europe/Paris (UTC+1.0)
Stats Elevation 25 ft / 8 m (AMSL)
Location 42.552508° 9.483709°
Runways 1
Magnetic Variation 2.485° E

METAR

LFKB 170030Z AUTO 31007KT 270V330 CAVOK 08/01 Q1013 NOSIG

Decode

TAF

TAF LFKB 162000Z 1621/1721 31005KT 9999 FEW030 BKN050 BKN150 TEMPO 1621/1624 30015G25KT 4000 SHRA SCT025TCU TX13/1713Z TN05/1704Z

Decode

Departure Runways

ID Width Length Bearing (true) Bearing (mag) Surface Threshold Offset Overrun Length
16 148 ft / 45 m 8,273 ft / 2,522 m 162.83° 160.34° Concrete 0 ft / 0 m 131 ft / 40 m
34 148 ft / 45 m 8,273 ft / 2,522 m 342.84° 340.35° Concrete 0 ft / 0 m 0 ft / 0 m

LIEA

Details ICAO LIEA (AHO)
Name ALGHERO
Region Italy
Timezone Europe/Rome (UTC+1.0)
Stats Elevation 87 ft / 27 m (AMSL)
Location 40.632132° 8.290774°
Runways 1
Magnetic Variation 2.195° E

METAR

LIEA 170020Z 31008KT 280V360 9999 FEW040 10/02 Q1015

Decode

TAF

TAF LIEA 162300Z 1700/1724 33012KT 9999 SCT025 BECMG 1719/1721 VRB05KT

Decode

Destination Runways

ID Width Length Bearing (true) Bearing (mag) Surface Threshold Offset Overrun Length
02 148 ft / 45 m 9,854 ft / 3,004 m 24.51° 22.32° Asphalt 0 ft / 0 m 0 ft / 0 m
20 148 ft / 45 m 9,854 ft / 3,004 m 204.52° 202.33° Asphalt 0 ft / 0 m 0 ft / 0 m

Approach Navaids

Runway Type Ident Frequency Range Bearing (true) Bearing (mag) Slope Elevation
20 Localiser IALF 110.15 MHz 18 nm / 33 km 204.47° 202.28° - 72 ft / 22 m (AMSL)
20 Glidescope IALF 110.15 MHz 10 nm / 19 km 204.51° 202.32° 3.00° 133 ft / 41 m (AMSL)
20 DME IALF 110.15 MHz 25 nm / 46 km - - - 133 ft / 41 m (AMSL)